EAG5508 TNCC-SKCG
Flight info
| Callsign | EAG5508 |
|---|---|
| Flight time | 1h 4m |
| Altitude | 34000 |
| Route | DATOR UL220 BAQ |
| Aircraft | A321/M-SDE3FGHIRWY/LB1 |
Departure
| Time | 2026-05-05 13:17 |
|---|---|
| Airport | Hato International Airport (TNCC) |
Arrival
| Time | 2026-05-05 14:22 |
|---|---|
| Airport | Rafael Nuñez International Airport (SKCG) |
| Time | Latitude | Longitude | Altitude | Speed | Heading |
|---|---|---|---|---|---|
| 2026-05-05 12:56 | 12.18528 | -68.95575 | 44 ft | 0 kts | 192° |
| 2026-05-05 13:08 | 12.18530 | -68.95574 | 43 ft | 2 kts | 192° |
| 2026-05-05 13:08 | 12.18556 | -68.95569 | 39 ft | 4 kts | 192° |
| 2026-05-05 13:09 | 12.18583 | -68.95563 | 40 ft | 4 kts | 192° |
| 2026-05-05 13:09 | 12.18605 | -68.95558 | 42 ft | 4 kts | 211° |
| 2026-05-05 13:09 | 12.18618 | -68.95540 | 43 ft | 4 kts | 273° |
| 2026-05-05 13:09 | 12.18615 | -68.95521 | 41 ft | 1 kts | 282° |
| 2026-05-05 13:10 | 12.18615 | -68.95518 | 41 ft | 0 kts | 282° |
| 2026-05-05 13:12 | 12.18615 | -68.95520 | 41 ft | 2 kts | 282° |
| 2026-05-05 13:12 | 12.18627 | -68.95571 | 43 ft | 12 kts | 283° |
| 2026-05-05 13:12 | 12.18645 | -68.95656 | 42 ft | 12 kts | 282° |
| 2026-05-05 13:12 | 12.18661 | -68.95736 | 42 ft | 12 kts | 281° |
| 2026-05-05 13:13 | 12.18678 | -68.95819 | 43 ft | 12 kts | 283° |
| 2026-05-05 13:13 | 12.18696 | -68.95901 | 43 ft | 12 kts | 282° |
| 2026-05-05 13:13 | 12.18716 | -68.96002 | 43 ft | 15 kts | 282° |
| 2026-05-05 13:13 | 12.18739 | -68.96108 | 43 ft | 15 kts | 283° |
| 2026-05-05 13:14 | 12.18761 | -68.96216 | 43 ft | 16 kts | 281° |
| 2026-05-05 13:14 | 12.18783 | -68.96324 | 40 ft | 16 kts | 282° |
| 2026-05-05 13:14 | 12.18806 | -68.96431 | 42 ft | 15 kts | 281° |
| 2026-05-05 13:14 | 12.18829 | -68.96541 | 42 ft | 18 kts | 283° |
| 2026-05-05 13:15 | 12.18855 | -68.96665 | 42 ft | 17 kts | 282° |
| 2026-05-05 13:15 | 12.18879 | -68.96775 | 41 ft | 14 kts | 286° |
| 2026-05-05 13:15 | 12.18953 | -68.96808 | 41 ft | 12 kts | 11° |
| 2026-05-05 13:15 | 12.19030 | -68.96790 | 41 ft | 11 kts | 19° |
| 2026-05-05 13:16 | 12.19049 | -68.96737 | 41 ft | 8 kts | 99° |
| 2026-05-05 13:16 | 12.19047 | -68.96728 | 42 ft | 0 kts | 103° |
| 2026-05-05 13:16 | 12.19004 | -68.96525 | 44 ft | 64 kts | 102° |
| 2026-05-05 13:16 | 12.18868 | -68.95876 | 41 ft | 120 kts | 102° |
| 2026-05-05 13:17 | 12.18663 | -68.94898 | 59 ft | 161 kts | 102° |
| 2026-05-05 13:17 | 12.18419 | -68.93754 | 592 ft | 164 kts | 103° |
| 2026-05-05 13:17 | 12.18183 | -68.92629 | 1235 ft | 160 kts | 103° |
| 2026-05-05 13:17 | 12.17951 | -68.91528 | 1700 ft | 159 kts | 103° |
| 2026-05-05 13:18 | 12.17703 | -68.90360 | 1886 ft | 179 kts | 103° |
| 2026-05-05 13:18 | 12.17320 | -68.89079 | 2014 ft | 200 kts | 122° |
| 2026-05-05 13:18 | 12.16155 | -68.88208 | 2126 ft | 229 kts | 163° |
| 2026-05-05 13:18 | 12.14491 | -68.88356 | 2388 ft | 259 kts | 201° |
| 2026-05-05 13:19 | 12.13085 | -68.89578 | 2973 ft | 276 kts | 228° |
| 2026-05-05 13:19 | 12.12026 | -68.91261 | 3667 ft | 284 kts | 236° |
| 2026-05-05 13:19 | 12.11087 | -68.92999 | 4432 ft | 283 kts | 237° |
| 2026-05-05 13:19 | 12.10100 | -68.94732 | 5182 ft | 281 kts | 234° |
| 2026-05-05 13:20 | 12.09036 | -68.96414 | 5838 ft | 283 kts | 231° |
| 2026-05-05 13:20 | 12.07896 | -68.98059 | 6477 ft | 285 kts | 231° |
| 2026-05-05 13:20 | 12.06969 | -68.99877 | 7039 ft | 294 kts | 249° |
| 2026-05-05 13:20 | 12.06612 | -69.01952 | 7620 ft | 301 kts | 267° |
| 2026-05-05 13:21 | 12.06914 | -69.04095 | 8116 ft | 310 kts | 286° |
| 2026-05-05 13:21 | 12.07572 | -69.06195 | 8723 ft | 311 kts | 287° |
| 2026-05-05 13:21 | 12.08238 | -69.08302 | 9346 ft | 312 kts | 287° |
| 2026-05-05 13:21 | 12.08902 | -69.10406 | 9830 ft | 318 kts | 287° |
| 2026-05-05 13:22 | 12.09584 | -69.12569 | 10247 ft | 325 kts | 287° |
| 2026-05-05 13:22 | 12.10296 | -69.14835 | 10361 ft | 344 kts | 287° |
| 2026-05-05 13:22 | 12.11042 | -69.17217 | 10478 ft | 361 kts | 287° |
| 2026-05-05 13:22 | 12.11822 | -69.19717 | 10596 ft | 377 kts | 287° |
| 2026-05-05 13:23 | 12.12633 | -69.22321 | 10713 ft | 392 kts | 287° |
| 2026-05-05 13:23 | 12.13475 | -69.25021 | 10911 ft | 403 kts | 288° |
| 2026-05-05 13:23 | 12.14334 | -69.27770 | 11247 ft | 410 kts | 288° |
| 2026-05-05 13:23 | 12.15206 | -69.30557 | 11682 ft | 413 kts | 288° |
| 2026-05-05 13:24 | 12.16067 | -69.33313 | 12216 ft | 413 kts | 288° |
| 2026-05-05 13:24 | 12.16941 | -69.36113 | 12698 ft | 415 kts | 288° |
| 2026-05-05 13:24 | 12.17821 | -69.38934 | 13078 ft | 419 kts | 288° |
| 2026-05-05 13:24 | 12.18709 | -69.41782 | 13457 ft | 423 kts | 288° |
| 2026-05-05 13:25 | 12.19604 | -69.44657 | 13885 ft | 425 kts | 288° |
| 2026-05-05 13:25 | 12.20500 | -69.47536 | 14251 ft | 427 kts | 288° |
| 2026-05-05 13:25 | 12.21406 | -69.50442 | 14595 ft | 430 kts | 288° |
| 2026-05-05 13:25 | 12.22316 | -69.53365 | 14938 ft | 433 kts | 288° |
| 2026-05-05 13:26 | 12.23234 | -69.56313 | 15294 ft | 435 kts | 288° |
| 2026-05-05 13:26 | 12.24138 | -69.59217 | 15733 ft | 435 kts | 288° |
| 2026-05-05 13:26 | 12.25058 | -69.62179 | 16030 ft | 439 kts | 288° |
| 2026-05-05 13:26 | 12.25982 | -69.65156 | 16429 ft | 440 kts | 288° |
| 2026-05-05 13:27 | 12.26873 | -69.68143 | 16874 ft | 439 kts | 286° |
| 2026-05-05 13:27 | 12.27669 | -69.71162 | 17206 ft | 442 kts | 284° |
| 2026-05-05 13:27 | 12.28400 | -69.74236 | 17470 ft | 447 kts | 283° |
| 2026-05-05 13:27 | 12.29096 | -69.77334 | 17843 ft | 449 kts | 283° |
| 2026-05-05 13:28 | 12.29796 | -69.80459 | 18098 ft | 453 kts | 283° |
| 2026-05-05 13:28 | 12.30507 | -69.83557 | 18443 ft | 454 kts | 283° |
| 2026-05-05 13:28 | 12.31246 | -69.86688 | 18782 ft | 455 kts | 284° |
| 2026-05-05 13:28 | 12.32004 | -69.89833 | 19140 ft | 455 kts | 284° |
| 2026-05-05 13:29 | 12.32770 | -69.92974 | 19500 ft | 454 kts | 284° |
| 2026-05-05 13:29 | 12.33537 | -69.96103 | 19874 ft | 455 kts | 284° |
| 2026-05-05 13:29 | 12.34304 | -69.99244 | 20222 ft | 455 kts | 284° |
| 2026-05-05 13:29 | 12.35066 | -70.02385 | 20578 ft | 456 kts | 285° |
| 2026-05-05 13:30 | 12.35825 | -70.05538 | 20902 ft | 457 kts | 284° |
| 2026-05-05 13:30 | 12.36580 | -70.08690 | 21300 ft | 456 kts | 284° |
| 2026-05-05 13:30 | 12.37329 | -70.11833 | 21675 ft | 455 kts | 284° |
| 2026-05-05 13:30 | 12.38068 | -70.14935 | 22040 ft | 455 kts | 284° |
| 2026-05-05 13:31 | 12.38820 | -70.18075 | 22446 ft | 454 kts | 284° |
| 2026-05-05 13:31 | 12.39572 | -70.21207 | 22823 ft | 453 kts | 285° |
| 2026-05-05 13:31 | 12.40135 | -70.24380 | 23134 ft | 455 kts | 276° |
| 2026-05-05 13:31 | 12.40166 | -70.27615 | 23491 ft | 457 kts | 267° |
| 2026-05-05 13:32 | 12.39661 | -70.30830 | 23759 ft | 460 kts | 257° |
| 2026-05-05 13:32 | 12.38698 | -70.33962 | 23962 ft | 463 kts | 253° |
| 2026-05-05 13:32 | 12.37664 | -70.37091 | 24154 ft | 465 kts | 253° |
| 2026-05-05 13:32 | 12.36641 | -70.40186 | 24358 ft | 467 kts | 253° |
| 2026-05-05 13:33 | 12.35603 | -70.43338 | 24561 ft | 468 kts | 253° |
| 2026-05-05 13:33 | 12.34564 | -70.46498 | 24782 ft | 469 kts | 253° |
| 2026-05-05 13:33 | 12.33523 | -70.49665 | 24974 ft | 471 kts | 253° |
| 2026-05-05 13:33 | 12.32477 | -70.52844 | 25183 ft | 472 kts | 253° |
| 2026-05-05 13:34 | 12.31426 | -70.56027 | 25402 ft | 473 kts | 253° |
| 2026-05-05 13:34 | 12.30370 | -70.59221 | 25612 ft | 475 kts | 253° |
| 2026-05-05 13:34 | 12.29310 | -70.62422 | 25829 ft | 476 kts | 253° |
| 2026-05-05 13:34 | 12.28249 | -70.65627 | 26050 ft | 477 kts | 253° |
| 2026-05-05 13:35 | 12.27200 | -70.68799 | 26248 ft | 478 kts | 253° |
| 2026-05-05 13:35 | 12.26134 | -70.72023 | 26459 ft | 479 kts | 253° |
| 2026-05-05 13:35 | 12.25067 | -70.75251 | 26646 ft | 480 kts | 253° |
| 2026-05-05 13:35 | 12.23999 | -70.78487 | 26898 ft | 480 kts | 253° |
| 2026-05-05 13:36 | 12.22932 | -70.81711 | 27190 ft | 478 kts | 253° |
| 2026-05-05 13:36 | 12.21859 | -70.84924 | 27428 ft | 478 kts | 252° |
| 2026-05-05 13:36 | 12.20762 | -70.88125 | 27700 ft | 477 kts | 252° |
| 2026-05-05 13:36 | 12.19651 | -70.91310 | 27987 ft | 475 kts | 252° |
| 2026-05-05 13:37 | 12.18532 | -70.94491 | 28248 ft | 474 kts | 252° |
| 2026-05-05 13:37 | 12.17433 | -70.97614 | 28535 ft | 473 kts | 252° |
| 2026-05-05 13:37 | 12.16323 | -71.00772 | 28793 ft | 472 kts | 252° |
| 2026-05-05 13:37 | 12.15217 | -71.03930 | 29041 ft | 472 kts | 252° |
| 2026-05-05 13:38 | 12.14121 | -71.07078 | 29328 ft | 470 kts | 252° |
| 2026-05-05 13:38 | 12.13026 | -71.10223 | 29555 ft | 470 kts | 252° |
| 2026-05-05 13:38 | 12.11946 | -71.13368 | 29803 ft | 469 kts | 253° |
| 2026-05-05 13:38 | 12.10901 | -71.16519 | 30082 ft | 467 kts | 253° |
| 2026-05-05 13:39 | 12.09880 | -71.19669 | 30243 ft | 467 kts | 253° |
| 2026-05-05 13:39 | 12.08867 | -71.22817 | 30466 ft | 466 kts | 253° |
| 2026-05-05 13:39 | 12.07868 | -71.25913 | 30680 ft | 465 kts | 253° |
| 2026-05-05 13:39 | 12.06846 | -71.29054 | 30854 ft | 466 kts | 252° |
| 2026-05-05 13:40 | 12.05818 | -71.32187 | 31085 ft | 465 kts | 252° |
| 2026-05-05 13:40 | 12.04787 | -71.35319 | 31275 ft | 465 kts | 252° |
| 2026-05-05 13:40 | 12.03755 | -71.38449 | 31448 ft | 466 kts | 252° |
| 2026-05-05 13:40 | 12.02721 | -71.41583 | 31680 ft | 465 kts | 252° |
| 2026-05-05 13:41 | 12.01690 | -71.44710 | 31872 ft | 465 kts | 252° |
| 2026-05-05 13:41 | 12.00656 | -71.47839 | 32060 ft | 465 kts | 252° |
| 2026-05-05 13:41 | 11.99638 | -71.50924 | 32298 ft | 464 kts | 252° |
| 2026-05-05 13:41 | 11.98608 | -71.54049 | 32488 ft | 464 kts | 252° |
| 2026-05-05 13:42 | 11.97579 | -71.57175 | 32684 ft | 464 kts | 252° |
| 2026-05-05 13:42 | 11.96554 | -71.60290 | 32948 ft | 463 kts | 252° |
| 2026-05-05 13:42 | 11.95525 | -71.63405 | 33152 ft | 463 kts | 252° |
| 2026-05-05 13:42 | 11.94496 | -71.66513 | 33390 ft | 462 kts | 252° |
| 2026-05-05 13:43 | 11.93467 | -71.69620 | 33625 ft | 461 kts | 252° |
| 2026-05-05 13:43 | 11.92439 | -71.72723 | 33818 ft | 462 kts | 252° |
| 2026-05-05 13:43 | 11.91413 | -71.75824 | 33952 ft | 461 kts | 252° |
| 2026-05-05 13:43 | 11.90407 | -71.78882 | 33982 ft | 460 kts | 252° |
| 2026-05-05 13:44 | 11.88369 | -71.85066 | 33977 ft | 459 kts | 251° |
| 2026-05-05 13:44 | 11.86321 | -71.91247 | 33974 ft | 459 kts | 252° |
| 2026-05-05 13:45 | 11.84270 | -71.97406 | 33972 ft | 458 kts | 252° |
| 2026-05-05 13:45 | 11.82240 | -72.03515 | 33968 ft | 456 kts | 252° |
| 2026-05-05 13:46 | 11.80197 | -72.09652 | 33966 ft | 457 kts | 253° |
| 2026-05-05 13:46 | 11.78154 | -72.15794 | 33960 ft | 458 kts | 252° |
| 2026-05-05 13:47 | 11.76109 | -72.21945 | 33967 ft | 458 kts | 252° |
| 2026-05-05 13:47 | 11.74065 | -72.28105 | 33964 ft | 458 kts | 253° |
| 2026-05-05 13:48 | 11.72031 | -72.34223 | 33960 ft | 458 kts | 252° |
| 2026-05-05 13:48 | 11.69976 | -72.40377 | 33959 ft | 459 kts | 252° |
| 2026-05-05 13:49 | 11.67915 | -72.46535 | 33958 ft | 459 kts | 252° |
| 2026-05-05 13:49 | 11.65855 | -72.52700 | 33957 ft | 459 kts | 253° |
| 2026-05-05 13:50 | 11.63812 | -72.58814 | 33959 ft | 459 kts | 252° |
| 2026-05-05 13:50 | 11.61749 | -72.64973 | 33955 ft | 459 kts | 252° |
| 2026-05-05 13:51 | 11.59678 | -72.71128 | 33946 ft | 459 kts | 253° |
| 2026-05-05 13:51 | 11.57606 | -72.77283 | 33941 ft | 459 kts | 252° |
| 2026-05-05 13:52 | 11.55535 | -72.83437 | 33937 ft | 459 kts | 252° |
| 2026-05-05 13:52 | 11.53480 | -72.89558 | 33938 ft | 459 kts | 252° |
| 2026-05-05 13:53 | 11.51253 | -72.95664 | 33935 ft | 460 kts | 249° |
| 2026-05-05 13:53 | 11.48663 | -73.01637 | 33932 ft | 461 kts | 246° |
| 2026-05-05 13:54 | 11.45996 | -73.07590 | 33937 ft | 462 kts | 247° |
| 2026-05-05 13:54 | 11.43414 | -73.13536 | 33954 ft | 462 kts | 248° |
| 2026-05-05 13:55 | 11.40871 | -73.19551 | 33957 ft | 462 kts | 248° |
| 2026-05-05 13:55 | 11.38326 | -73.25573 | 33980 ft | 463 kts | 248° |
| 2026-05-05 13:56 | 11.35754 | -73.31585 | 33980 ft | 463 kts | 248° |
| 2026-05-05 13:56 | 11.33189 | -73.37559 | 33976 ft | 464 kts | 248° |
| 2026-05-05 13:57 | 11.30609 | -73.43587 | 33981 ft | 465 kts | 248° |
| 2026-05-05 13:57 | 11.28023 | -73.49623 | 33987 ft | 465 kts | 248° |
| 2026-05-05 13:58 | 11.25431 | -73.55659 | 34034 ft | 465 kts | 248° |
| 2026-05-05 13:58 | 11.22834 | -73.61701 | 34037 ft | 465 kts | 248° |
| 2026-05-05 13:59 | 11.18960 | -73.70720 | 34037 ft | 465 kts | 248° |
| 2026-05-05 14:00 | 11.15547 | -73.78765 | 34042 ft | 465 kts | 248° |
| 2026-05-05 14:00 | 11.12558 | -73.85833 | 34062 ft | 465 kts | 249° |
| 2026-05-05 14:01 | 11.10006 | -73.91823 | 34063 ft | 464 kts | 249° |
| 2026-05-05 14:01 | 11.07433 | -73.97849 | 34019 ft | 464 kts | 248° |
| 2026-05-05 14:02 | 11.04859 | -74.03877 | 34013 ft | 465 kts | 248° |
| 2026-05-05 14:02 | 11.03571 | -74.06898 | 33708 ft | 466 kts | 248° |
| 2026-05-05 14:02 | 11.02284 | -74.09923 | 33437 ft | 466 kts | 248° |
| 2026-05-05 14:03 | 11.00995 | -74.12954 | 33188 ft | 466 kts | 248° |
| 2026-05-05 14:03 | 10.99703 | -74.15985 | 32933 ft | 467 kts | 248° |
| 2026-05-05 14:03 | 10.98423 | -74.18974 | 32689 ft | 468 kts | 248° |
| 2026-05-05 14:03 | 10.97121 | -74.22010 | 32437 ft | 468 kts | 248° |
| 2026-05-05 14:04 | 10.95963 | -74.25102 | 32193 ft | 468 kts | 255° |
| 2026-05-05 14:04 | 10.95105 | -74.28292 | 31957 ft | 468 kts | 256° |
| 2026-05-05 14:04 | 10.94250 | -74.31498 | 31158 ft | 473 kts | 256° |
| 2026-05-05 14:04 | 10.93378 | -74.34748 | 30274 ft | 478 kts | 256° |
| 2026-05-05 14:05 | 10.92494 | -74.38030 | 29192 ft | 484 kts | 256° |
| 2026-05-05 14:05 | 10.91600 | -74.41346 | 28179 ft | 488 kts | 256° |
| 2026-05-05 14:05 | 10.90697 | -74.44685 | 27195 ft | 491 kts | 256° |
| 2026-05-05 14:05 | 10.89804 | -74.48001 | 26125 ft | 495 kts | 256° |
| 2026-05-05 14:06 | 10.88886 | -74.51402 | 24968 ft | 502 kts | 255° |
| 2026-05-05 14:06 | 10.87956 | -74.54840 | 23881 ft | 506 kts | 255° |
| 2026-05-05 14:06 | 10.87024 | -74.58288 | 23055 ft | 500 kts | 255° |
| 2026-05-05 14:06 | 10.86114 | -74.61653 | 22055 ft | 488 kts | 255° |
| 2026-05-05 14:07 | 10.85223 | -74.64953 | 21348 ft | 480 kts | 255° |
| 2026-05-05 14:07 | 10.84342 | -74.68220 | 20601 ft | 477 kts | 254° |
| 2026-05-05 14:07 | 10.83470 | -74.71464 | 19864 ft | 475 kts | 254° |
| 2026-05-05 14:07 | 10.82599 | -74.74695 | 19145 ft | 472 kts | 253° |
| 2026-05-05 14:08 | 10.81730 | -74.77905 | 18440 ft | 470 kts | 253° |
| 2026-05-05 14:08 | 10.80873 | -74.81057 | 17701 ft | 467 kts | 253° |
| 2026-05-05 14:08 | 10.79794 | -74.84146 | 17053 ft | 460 kts | 243° |
| 2026-05-05 14:08 | 10.78249 | -74.86944 | 16500 ft | 450 kts | 234° |
| 2026-05-05 14:09 | 10.76298 | -74.89404 | 15871 ft | 443 kts | 224° |
| 2026-05-05 14:09 | 10.74159 | -74.91632 | 15265 ft | 438 kts | 223° |
| 2026-05-05 14:09 | 10.72041 | -74.93838 | 14682 ft | 434 kts | 224° |
| 2026-05-05 14:09 | 10.69946 | -74.96024 | 14111 ft | 429 kts | 224° |
| 2026-05-05 14:10 | 10.67872 | -74.98190 | 13532 ft | 425 kts | 224° |
| 2026-05-05 14:10 | 10.65828 | -75.00329 | 12965 ft | 419 kts | 224° |
| 2026-05-05 14:10 | 10.63836 | -75.02413 | 12424 ft | 413 kts | 224° |
| 2026-05-05 14:10 | 10.61843 | -75.04491 | 11886 ft | 408 kts | 224° |
| 2026-05-05 14:11 | 10.59871 | -75.06546 | 11400 ft | 402 kts | 224° |
| 2026-05-05 14:11 | 10.57958 | -75.08544 | 11264 ft | 387 kts | 224° |
| 2026-05-05 14:11 | 10.56115 | -75.10470 | 11140 ft | 372 kts | 223° |
| 2026-05-05 14:11 | 10.54341 | -75.12321 | 11023 ft | 358 kts | 223° |
| 2026-05-05 14:12 | 10.52636 | -75.14097 | 10907 ft | 346 kts | 223° |
| 2026-05-05 14:12 | 10.50983 | -75.15819 | 10789 ft | 334 kts | 223° |
| 2026-05-05 14:12 | 10.49421 | -75.17445 | 10662 ft | 317 kts | 223° |
| 2026-05-05 14:12 | 10.47905 | -75.19020 | 10329 ft | 308 kts | 223° |
| 2026-05-05 14:13 | 10.46430 | -75.20551 | 10165 ft | 297 kts | 223° |
| 2026-05-05 14:13 | 10.45019 | -75.22019 | 10101 ft | 284 kts | 223° |
| 2026-05-05 14:13 | 10.43664 | -75.23431 | 9978 ft | 275 kts | 223° |
| 2026-05-05 14:13 | 10.42310 | -75.24837 | 9466 ft | 282 kts | 223° |
| 2026-05-05 14:14 | 10.40930 | -75.26270 | 8997 ft | 285 kts | 223° |
| 2026-05-05 14:14 | 10.39538 | -75.27718 | 8538 ft | 288 kts | 223° |
| 2026-05-05 14:14 | 10.38148 | -75.29164 | 8076 ft | 292 kts | 223° |
| 2026-05-05 14:14 | 10.36723 | -75.30645 | 7614 ft | 295 kts | 223° |
| 2026-05-05 14:15 | 10.35286 | -75.32138 | 7224 ft | 294 kts | 223° |
| 2026-05-05 14:15 | 10.33864 | -75.33617 | 6917 ft | 290 kts | 223° |
| 2026-05-05 14:15 | 10.32456 | -75.35082 | 6361 ft | 290 kts | 223° |
| 2026-05-05 14:15 | 10.31050 | -75.36541 | 5827 ft | 288 kts | 223° |
| 2026-05-05 14:16 | 10.29657 | -75.37992 | 5310 ft | 285 kts | 224° |
| 2026-05-05 14:16 | 10.28276 | -75.39430 | 4823 ft | 283 kts | 224° |
| 2026-05-05 14:16 | 10.27011 | -75.40941 | 4353 ft | 280 kts | 237° |
| 2026-05-05 14:16 | 10.26249 | -75.42709 | 3911 ft | 277 kts | 255° |
| 2026-05-05 14:17 | 10.26050 | -75.44621 | 3656 ft | 267 kts | 271° |
| 2026-05-05 14:17 | 10.26134 | -75.46466 | 3581 ft | 257 kts | 271° |
| 2026-05-05 14:17 | 10.26203 | -75.48250 | 3466 ft | 248 kts | 271° |
| 2026-05-05 14:17 | 10.26344 | -75.49959 | 3365 ft | 238 kts | 285° |
| 2026-05-05 14:18 | 10.27188 | -75.51321 | 3267 ft | 224 kts | 322° |
| 2026-05-05 14:18 | 10.28555 | -75.51906 | 2961 ft | 209 kts | 357° |
| 2026-05-05 14:18 | 10.29963 | -75.51866 | 2643 ft | 196 kts | 5° |
| 2026-05-05 14:18 | 10.31284 | -75.51810 | 2313 ft | 190 kts | 4° |
| 2026-05-05 14:19 | 10.32583 | -75.51767 | 2014 ft | 183 kts | 4° |
| 2026-05-05 14:19 | 10.33829 | -75.51727 | 1804 ft | 175 kts | 4° |
| 2026-05-05 14:19 | 10.34981 | -75.51682 | 1670 ft | 158 kts | 4° |
| 2026-05-05 14:19 | 10.36070 | -75.51632 | 1429 ft | 154 kts | 5° |
| 2026-05-05 14:20 | 10.37133 | -75.51583 | 1181 ft | 152 kts | 4° |
| 2026-05-05 14:20 | 10.38186 | -75.51546 | 938 ft | 152 kts | 5° |
| 2026-05-05 14:20 | 10.39234 | -75.51504 | 778 ft | 148 kts | 4° |
| 2026-05-05 14:20 | 10.40265 | -75.51465 | 600 ft | 148 kts | 4° |
| 2026-05-05 14:21 | 10.41280 | -75.51418 | 424 ft | 149 kts | 5° |
| 2026-05-05 14:21 | 10.42318 | -75.51377 | 233 ft | 149 kts | 4° |
| 2026-05-05 14:21 | 10.43345 | -75.51326 | 68 ft | 146 kts | 4° |
| 2026-05-05 14:21 | 10.44252 | -75.51288 | 49 ft | 104 kts | 2° |
| 2026-05-05 14:22 | 10.44596 | -75.51275 | 51 ft | 9 kts | 359° |
| 2026-05-05 14:22 | 10.44647 | -75.51332 | 49 ft | 10 kts | 276° |
| 2026-05-05 14:22 | 10.44634 | -75.51396 | 51 ft | 9 kts | 262° |
| 2026-05-05 14:22 | 10.44627 | -75.51438 | 48 ft | 4 kts | 244° |
| 2026-05-05 14:23 | 10.44606 | -75.51453 | 51 ft | 6 kts | 204° |
| 2026-05-05 14:23 | 10.44560 | -75.51471 | 51 ft | 7 kts | 223° |
| 2026-05-05 14:23 | 10.44531 | -75.51499 | 51 ft | 5 kts | 201° |
| 2026-05-05 14:23 | 10.44502 | -75.51503 | 51 ft | 4 kts | 186° |
| 2026-05-05 14:24 | 10.44493 | -75.51522 | 51 ft | 7 kts | 255° |
| 2026-05-05 14:24 | 10.44492 | -75.51547 | 51 ft | 2 kts | 271° |
| 2026-05-05 14:24 | 10.44492 | -75.51552 | 51 ft | 0 kts | 271° |